MSC Lisbon — A8LL9 — position and weather

sailwx.info

Track history (hours):
 
Tides and Currents Weather Stations Pressure Air Temp Water Temp Dewpoint Dewpoint Depression Visibility Wind Speed Wind Dir Waves Ship Positions

MSC Lisbon

Last reported at 2014-Dec-13 16:25 UTC. Time now 2014-Dec-23 00:53 UTC.
Position N 02°02' E 102°11'.
Warning: this ship's position is 9 days out of date.

Length 336.7 m; beam 45.6 m; draft 15.3 m.

Type: Ship (hazmat cat A). MMSI: 636091276.

Date/timePositionNaut miles runAvg speedWind from/ knotsBaromVisibWave heightAir tempDewpointWater temp
2014-Dec-13 16:25N 02°02' E 102°11'1617.9
2014-Dec-13 15:30N 01°53' E 102°25'1718.4
2014-Dec-13 14:33N 01°45' E 102°41'7618.8
2014-Dec-13 10:32N 01°11' E 103°49'6 5.0
2014-Dec-13 09:25N 01°16' E 103°46'0 0.0
2014-Dec-13 08:07N 01°16' E 103°46'0 0.0
2014-Dec-13 07:25N 01°16' E 103°46'0 0.0
2014-Dec-13 05:31N 01°16' E 103°46'0 0.0
2014-Dec-13 04:25N 01°16' E 103°46'0 0.0
2014-Dec-13 03:31N 01°16' E 103°46'0 0.0
2014-Dec-13 02:31N 01°16' E 103°46'0 0.0
2014-Dec-13 01:04N 01°16' E 103°46'0 0.0
2014-Dec-13 00:22N 01°16' E 103°46'0 0.0
2014-Dec-12 23:31N 01°16' E 103°46'0 0.0
2014-Dec-12 22:31N 01°16' E 103°46'0 0.0
2014-Dec-12 20:31N 01°16' E 103°46'0 0.0
2014-Dec-12 19:10N 01°16' E 103°46'0 0.0
2014-Dec-12 14:30N 01°16' E 103°46'0 0.0
2014-Dec-12 13:30N 01°16' E 103°46'0 0.0
2014-Dec-12 12:21N 01°16' E 103°46'0 0.0
2014-Dec-12 11:30N 01°16' E 103°46'0 0.0
2014-Dec-12 09:12N 01°16' E 103°46'0 0.0
2014-Dec-12 08:30N 01°16' E 103°46'0 0.0
2014-Dec-12 07:24N 01°16' E 103°46'0 0.0
2014-Dec-12 06:30N 01°16' E 103°46'0 0.0
2014-Dec-12 05:24N 01°16' E 103°46'0 0.0
2014-Dec-12 04:30N 01°16' E 103°46'0 0.0
2014-Dec-12 03:30N 01°16' E 103°46'1 0.8
2014-Dec-12 02:33N 01°15' E 103°46'2 1.5
2014-Dec-12 01:20N 01°14' E 103°47'1 1.4
2014-Dec-12 00:33N 01°13' E 103°48'9 9.1
2014-Dec-11 23:33N 01°15' E 103°57'1212.3
2014-Dec-11 22:33N 01°17' E 104°09'  
2014-Dec-07 14:06N 22°17' E 114°06'1211.9
2014-Dec-07 13:07N 22°22' E 113°54'5 9.2
2014-Dec-07 12:33N 22°27' E 113°53'1 0.6
2014-Dec-07 11:27N 22°28' E 113°53'0 0.0
2014-Dec-07 10:33N 22°28' E 113°53'0 0.0
2014-Dec-07 09:33N 22°28' E 113°53'0 0.0
2014-Dec-07 08:27N 22°28' E 113°53'0 0.0
2014-Dec-07 07:27N 22°28' E 113°53'0 0.0
2014-Dec-07 06:33N 22°28' E 113°53'0 0.0
2014-Dec-07 05:33N 22°28' E 113°53'0 0.0
2014-Dec-07 04:27N 22°28' E 113°53'0 0.0
2014-Dec-07 03:33N 22°28' E 113°53'0 0.0
2014-Dec-07 02:33N 22°28' E 113°53'3 3.2
2014-Dec-07 01:33N 22°25' E 113°53'11 9.3
2014-Dec-07 00:19N 22°20' E 114°05'1111.5
2014-Dec-06 23:21N 22°11' E 114°12'29314.5
2014-Dec-06 03:08N 24°16' E 119°01'1618.0
2014-Dec-06 02:14N 24°27' E 119°13'40114.9
2014-Dec-04 23:14N 30°32' E 122°21'710.2
2014-Dec-04 22:33N 30°33' E 122°12'8 8.0
2014-Dec-04 21:33N 30°37' E 122°04'0 0.0
2014-Dec-04 20:33N 30°37' E 122°04'0 0.0
2014-Dec-04 19:33N 30°37' E 122°04'0 0.0
2014-Dec-04 18:33N 30°37' E 122°04'0 0.0
2014-Dec-04 17:33N 30°37' E 122°04'0 0.0
2014-Dec-04 16:30N 30°37' E 122°04'0 0.1
2014-Dec-04 15:33N 30°37' E 122°04'0 0.0
2014-Dec-04 14:33N 30°37' E 122°04'0 0.1
2014-Dec-04 13:33N 30°37' E 122°04'0 0.0
2014-Dec-04 12:33N 30°37' E 122°04'0 0.0
2014-Dec-04 11:33N 30°37' E 122°04'0 0.0
2014-Dec-04 10:33N 30°37' E 122°04'0 0.0
2014-Dec-04 09:33N 30°37' E 122°04'4 3.8
2014-Dec-04 08:33N 30°35' E 122°08'1211.6
2014-Dec-04 07:33N 30°33' E 122°21'7 6.8
2014-Dec-04 06:30N 30°29' E 122°28'0 0.0
2014-Dec-04 05:30N 30°29' E 122°28'0 0.0
2014-Dec-04 04:21N 30°29' E 122°28'0 0.1
2014-Dec-04 03:33N 30°29' E 122°28'0 0.0
2014-Dec-04 02:33N 30°29' E 122°28'0 0.1
2014-Dec-04 01:33N 30°29' E 122°28'6 5.7
2014-Dec-04 00:34N 30°33' E 122°23'51 7.2
2014-Dec-03 17:31N 29°44' E 122°40'7 7.3
2014-Dec-03 16:33N 29°40' E 122°34'  
Track history (hours):
 
Tides and Currents Weather Stations Pressure Air Temp Water Temp Dewpoint Dewpoint Depression Visibility Wind Speed Wind Dir Waves Ship Positions

MSC Lisbon

Last reported at 2014-Dec-13 16:25 UTC. Time now 2014-Dec-23 00:53 UTC.
Position N 02°02' E 102°11'.
Warning: this ship's position is 9 days out of date.

Length 336.7 m; beam 45.6 m; draft 15.3 m.

Type: Ship (hazmat cat A). MMSI: 636091276.

Date/timePositionNaut miles runAvg speedWind from/ knotsBaromVisibWave heightAir tempDewpointWater temp
2014-Dec-13 16:25N 02°02' E 102°11'1617.9
2014-Dec-13 15:30N 01°53' E 102°25'1718.4
2014-Dec-13 14:33N 01°45' E 102°41'7618.8
2014-Dec-13 10:32N 01°11' E 103°49'6 5.0
2014-Dec-13 09:25N 01°16' E 103°46'0 0.0
2014-Dec-13 08:07N 01°16' E 103°46'0 0.0
2014-Dec-13 07:25N 01°16' E 103°46'0 0.0
2014-Dec-13 05:31N 01°16' E 103°46'0 0.0
2014-Dec-13 04:25N 01°16' E 103°46'0 0.0
2014-Dec-13 03:31N 01°16' E 103°46'0 0.0
2014-Dec-13 02:31N 01°16' E 103°46'0 0.0
2014-Dec-13 01:04N 01°16' E 103°46'0 0.0
2014-Dec-13 00:22N 01°16' E 103°46'0 0.0
2014-Dec-12 23:31N 01°16' E 103°46'0 0.0
2014-Dec-12 22:31N 01°16' E 103°46'0 0.0
2014-Dec-12 20:31N 01°16' E 103°46'0 0.0
2014-Dec-12 19:10N 01°16' E 103°46'0 0.0
2014-Dec-12 14:30N 01°16' E 103°46'0 0.0
2014-Dec-12 13:30N 01°16' E 103°46'0 0.0
2014-Dec-12 12:21N 01°16' E 103°46'0 0.0
2014-Dec-12 11:30N 01°16' E 103°46'0 0.0
2014-Dec-12 09:12N 01°16' E 103°46'0 0.0
2014-Dec-12 08:30N 01°16' E 103°46'0 0.0
2014-Dec-12 07:24N 01°16' E 103°46'0 0.0
2014-Dec-12 06:30N 01°16' E 103°46'0 0.0
2014-Dec-12 05:24N 01°16' E 103°46'0 0.0
2014-Dec-12 04:30N 01°16' E 103°46'0 0.0
2014-Dec-12 03:30N 01°16' E 103°46'1 0.8
2014-Dec-12 02:33N 01°15' E 103°46'2 1.5
2014-Dec-12 01:20N 01°14' E 103°47'1 1.4
2014-Dec-12 00:33N 01°13' E 103°48'9 9.1
2014-Dec-11 23:33N 01°15' E 103°57'1212.3
2014-Dec-11 22:33N 01°17' E 104°09'  
2014-Dec-07 14:06N 22°17' E 114°06'1211.9
2014-Dec-07 13:07N 22°22' E 113°54'5 9.2
2014-Dec-07 12:33N 22°27' E 113°53'1 0.6
2014-Dec-07 11:27N 22°28' E 113°53'0 0.0
2014-Dec-07 10:33N 22°28' E 113°53'0 0.0
2014-Dec-07 09:33N 22°28' E 113°53'0 0.0
2014-Dec-07 08:27N 22°28' E 113°53'0 0.0
2014-Dec-07 07:27N 22°28' E 113°53'0 0.0
2014-Dec-07 06:33N 22°28' E 113°53'0 0.0
2014-Dec-07 05:33N 22°28' E 113°53'0 0.0
2014-Dec-07 04:27N 22°28' E 113°53'0 0.0
2014-Dec-07 03:33N 22°28' E 113°53'0 0.0
2014-Dec-07 02:33N 22°28' E 113°53'3 3.2
2014-Dec-07 01:33N 22°25' E 113°53'11 9.3
2014-Dec-07 00:19N 22°20' E 114°05'1111.5
2014-Dec-06 23:21N 22°11' E 114°12'29314.5
2014-Dec-06 03:08N 24°16' E 119°01'1618.0
2014-Dec-06 02:14N 24°27' E 119°13'40114.9
2014-Dec-04 23:14N 30°32' E 122°21'710.2
2014-Dec-04 22:33N 30°33' E 122°12'8 8.0
2014-Dec-04 21:33N 30°37' E 122°04'0 0.0
2014-Dec-04 20:33N 30°37' E 122°04'0 0.0
2014-Dec-04 19:33N 30°37' E 122°04'0 0.0
2014-Dec-04 18:33N 30°37' E 122°04'0 0.0
2014-Dec-04 17:33N 30°37' E 122°04'0 0.0
2014-Dec-04 16:30N 30°37' E 122°04'0 0.1
2014-Dec-04 15:33N 30°37' E 122°04'0 0.0
2014-Dec-04 14:33N 30°37' E 122°04'0 0.1
2014-Dec-04 13:33N 30°37' E 122°04'0 0.0
2014-Dec-04 12:33N 30°37' E 122°04'0 0.0
2014-Dec-04 11:33N 30°37' E 122°04'0 0.0
2014-Dec-04 10:33N 30°37' E 122°04'0 0.0
2014-Dec-04 09:33N 30°37' E 122°04'4 3.8
2014-Dec-04 08:33N 30°35' E 122°08'1211.6
2014-Dec-04 07:33N 30°33' E 122°21'7 6.8
2014-Dec-04 06:30N 30°29' E 122°28'0 0.0
2014-Dec-04 05:30N 30°29' E 122°28'0 0.0
2014-Dec-04 04:21N 30°29' E 122°28'0 0.1
2014-Dec-04 03:33N 30°29' E 122°28'0 0.0
2014-Dec-04 02:33N 30°29' E 122°28'0 0.1
2014-Dec-04 01:33N 30°29' E 122°28'6 5.7
2014-Dec-04 00:34N 30°33' E 122°23'51 7.2
2014-Dec-03 17:31N 29°44' E 122°40'7 7.3
2014-Dec-03 16:33N 29°40' E 122°34'  

Dump ship's entire track history